sensor_id;sensor_type;location;lat;lon;timestamp;P1;durP1;ratioP1;P2;durP2;ratioP2
13197;SDS011;6664;52.514;13.440;2024-02-21T00:02:13;9.77;;;2.70;;
13197;SDS011;6664;52.514;13.440;2024-02-21T00:05:00;16.80;;;3.80;;
13197;SDS011;6664;52.514;13.440;2024-02-21T00:07:46;11.43;;;3.40;;
13197;SDS011;6664;52.514;13.440;2024-02-21T00:10:36;7.97;;;3.63;;
13197;SDS011;6664;52.514;13.440;2024-02-21T00:13:21;15.13;;;3.47;;
13197;SDS011;6664;52.514;13.440;2024-02-21T00:16:07;12.20;;;3.53;;
13197;SDS011;6664;52.514;13.440;2024-02-21T00:18:53;9.07;;;3.40;;
13197;SDS011;6664;52.514;13.440;2024-02-21T00:21:38;13.47;;;3.07;;
13197;SDS011;6664;52.514;13.440;2024-02-21T00:24:24;8.23;;;3.17;;
13197;SDS011;6664;52.514;13.440;2024-02-21T00:27:09;6.47;;;3.13;;
13197;SDS011;6664;52.514;13.440;2024-02-21T00:29:55;13.37;;;2.80;;
13197;SDS011;6664;52.514;13.440;2024-02-21T00:32:42;12.00;;;3.30;;
13197;SDS011;6664;52.514;13.440;2024-02-21T00:35:28;9.90;;;2.70;;
13197;SDS011;6664;52.514;13.440;2024-02-21T00:38:13;9.67;;;2.70;;
13197;SDS011;6664;52.514;13.440;2024-02-21T00:40:59;14.10;;;2.83;;
13197;SDS011;6664;52.514;13.440;2024-02-21T00:43:44;10.90;;;3.27;;
13197;SDS011;6664;52.514;13.440;2024-02-21T00:46:30;9.33;;;3.03;;
13197;SDS011;6664;52.514;13.440;2024-02-21T00:49:16;5.63;;;3.00;;
13197;SDS011;6664;52.514;13.440;2024-02-21T00:52:01;6.43;;;3.00;;
13197;SDS011;6664;52.514;13.440;2024-02-21T00:54:47;8.63;;;3.00;;
13197;SDS011;6664;52.514;13.440;2024-02-21T00:57:39;8.10;;;3.00;;
13197;SDS011;6664;52.514;13.440;2024-02-21T01:00:26;7.53;;;2.97;;
13197;SDS011;6664;52.514;13.440;2024-02-21T01:03:12;9.83;;;2.70;;
13197;SDS011;6664;52.514;13.440;2024-02-21T01:06:02;15.63;;;3.70;;
13197;SDS011;6664;52.514;13.440;2024-02-21T01:08:52;17.17;;;2.63;;
13197;SDS011;6664;52.514;13.440;2024-02-21T01:11:38;7.23;;;2.63;;
13197;SDS011;6664;52.514;13.440;2024-02-21T01:14:23;8.03;;;2.40;;
13197;SDS011;6664;52.514;13.440;2024-02-21T01:17:09;9.27;;;2.80;;
13197;SDS011;6664;52.514;13.440;2024-02-21T01:19:54;4.93;;;2.47;;
13197;SDS011;6664;52.514;13.440;2024-02-21T01:22:40;9.00;;;3.03;;
13197;SDS011;6664;52.514;13.440;2024-02-21T01:25:27;7.53;;;2.60;;
13197;SDS011;6664;52.514;13.440;2024-02-21T01:28:13;9.97;;;3.83;;
13197;SDS011;6664;52.514;13.440;2024-02-21T01:30:58;5.57;;;2.20;;
13197;SDS011;6664;52.514;13.440;2024-02-21T01:33:44;7.20;;;2.47;;
13197;SDS011;6664;52.514;13.440;2024-02-21T01:36:33;12.63;;;3.03;;
13197;SDS011;6664;52.514;13.440;2024-02-21T01:39:18;9.17;;;2.67;;
13197;SDS011;6664;52.514;13.440;2024-02-21T01:42:04;9.07;;;2.13;;
13197;SDS011;6664;52.514;13.440;2024-02-21T01:44:51;7.87;;;2.70;;
13197;SDS011;6664;52.514;13.440;2024-02-21T01:47:39;7.23;;;2.37;;
13197;SDS011;6664;52.514;13.440;2024-02-21T01:50:25;4.33;;;2.70;;
13197;SDS011;6664;52.514;13.440;2024-02-21T01:53:14;7.80;;;2.50;;
13197;SDS011;6664;52.514;13.440;2024-02-21T01:56:05;6.30;;;2.00;;
13197;SDS011;6664;52.514;13.440;2024-02-21T01:58:52;7.77;;;2.80;;
13197;SDS011;6664;52.514;13.440;2024-02-21T02:01:37;11.10;;;3.00;;
13197;SDS011;6664;52.514;13.440;2024-02-21T02:04:24;11.00;;;2.80;;
13197;SDS011;6664;52.514;13.440;2024-02-21T02:07:10;10.97;;;2.40;;
13197;SDS011;6664;52.514;13.440;2024-02-21T02:09:58;8.40;;;2.50;;
13197;SDS011;6664;52.514;13.440;2024-02-21T02:12:44;3.30;;;2.00;;
13197;SDS011;6664;52.514;13.440;2024-02-21T02:18:26;8.93;;;2.50;;
13197;SDS011;6664;52.514;13.440;2024-02-21T02:21:13;13.77;;;2.27;;
13197;SDS011;6664;52.514;13.440;2024-02-21T02:24:20;6.73;;;2.63;;
13197;SDS011;6664;52.514;13.440;2024-02-21T02:27:06;15.97;;;2.90;;
13197;SDS011;6664;52.514;13.440;2024-02-21T02:29:51;8.40;;;2.90;;
13197;SDS011;6664;52.514;13.440;2024-02-21T02:32:37;6.40;;;2.20;;
13197;SDS011;6664;52.514;13.440;2024-02-21T02:35:23;5.53;;;2.37;;
13197;SDS011;6664;52.514;13.440;2024-02-21T02:38:09;8.90;;;2.30;;
13197;SDS011;6664;52.514;13.440;2024-02-21T02:40:55;3.23;;;1.90;;
13197;SDS011;6664;52.514;13.440;2024-02-21T02:43:41;5.17;;;3.53;;
13197;SDS011;6664;52.514;13.440;2024-02-21T02:46:27;5.60;;;2.30;;
13197;SDS011;6664;52.514;13.440;2024-02-21T02:49:16;7.80;;;2.87;;
13197;SDS011;6664;52.514;13.440;2024-02-21T02:52:02;6.97;;;2.73;;
13197;SDS011;6664;52.514;13.440;2024-02-21T02:54:47;4.97;;;2.00;;
13197;SDS011;6664;52.514;13.440;2024-02-21T02:57:36;7.30;;;2.97;;
13197;SDS011;6664;52.514;13.440;2024-02-21T03:00:23;12.27;;;2.70;;
13197;SDS011;6664;52.514;13.440;2024-02-21T03:03:08;8.40;;;3.00;;
13197;SDS011;6664;52.514;13.440;2024-02-21T03:05:55;12.67;;;3.83;;
13197;SDS011;6664;52.514;13.440;2024-02-21T03:08:44;9.27;;;2.90;;
13197;SDS011;6664;52.514;13.440;2024-02-21T03:11:30;7.43;;;2.53;;
13197;SDS011;6664;52.514;13.440;2024-02-21T03:14:18;13.90;;;3.80;;
13197;SDS011;6664;52.514;13.440;2024-02-21T03:17:04;2.93;;;2.27;;
13197;SDS011;6664;52.514;13.440;2024-02-21T03:19:55;14.40;;;3.13;;
13197;SDS011;6664;52.514;13.440;2024-02-21T03:22:40;6.77;;;2.83;;
13197;SDS011;6664;52.514;13.440;2024-02-21T03:25:26;4.33;;;1.80;;
13197;SDS011;6664;52.514;13.440;2024-02-21T03:28:12;20.13;;;3.40;;
13197;SDS011;6664;52.514;13.440;2024-02-21T03:30:57;4.83;;;2.30;;
13197;SDS011;6664;52.514;13.440;2024-02-21T03:33:43;7.30;;;3.10;;
13197;SDS011;6664;52.514;13.440;2024-02-21T03:36:29;9.33;;;2.47;;
13197;SDS011;6664;52.514;13.440;2024-02-21T03:39:14;3.43;;;2.73;;
13197;SDS011;6664;52.514;13.440;2024-02-21T03:42:01;9.80;;;2.60;;
13197;SDS011;6664;52.514;13.440;2024-02-21T03:44:49;8.40;;;3.40;;
13197;SDS011;6664;52.514;13.440;2024-02-21T03:47:35;15.67;;;3.60;;
13197;SDS011;6664;52.514;13.440;2024-02-21T03:50:21;5.30;;;2.97;;
13197;SDS011;6664;52.514;13.440;2024-02-21T03:53:06;3.83;;;2.57;;
13197;SDS011;6664;52.514;13.440;2024-02-21T03:55:52;12.97;;;3.30;;
13197;SDS011;6664;52.514;13.440;2024-02-21T03:58:38;4.77;;;2.97;;
13197;SDS011;6664;52.514;13.440;2024-02-21T04:01:23;10.87;;;2.73;;
13197;SDS011;6664;52.514;13.440;2024-02-21T04:04:09;6.30;;;2.90;;
13197;SDS011;6664;52.514;13.440;2024-02-21T04:06:56;5.83;;;2.90;;
13197;SDS011;6664;52.514;13.440;2024-02-21T04:09:41;12.00;;;3.10;;
13197;SDS011;6664;52.514;13.440;2024-02-21T04:12:28;4.43;;;3.30;;
13197;SDS011;6664;52.514;13.440;2024-02-21T04:15:16;8.23;;;3.20;;
13197;SDS011;6664;52.514;13.440;2024-02-21T04:18:02;12.73;;;3.80;;
13197;SDS011;6664;52.514;13.440;2024-02-21T04:20:48;6.33;;;3.00;;
13197;SDS011;6664;52.514;13.440;2024-02-21T04:23:35;7.40;;;3.80;;
13197;SDS011;6664;52.514;13.440;2024-02-21T04:26:20;11.93;;;3.83;;
13197;SDS011;6664;52.514;13.440;2024-02-21T04:29:06;11.60;;;4.30;;
13197;SDS011;6664;52.514;13.440;2024-02-21T04:31:52;6.47;;;3.27;;
13197;SDS011;6664;52.514;13.440;2024-02-21T04:34:38;8.63;;;3.60;;
13197;SDS011;6664;52.514;13.440;2024-02-21T04:37:26;13.60;;;3.17;;
13197;SDS011;6664;52.514;13.440;2024-02-21T04:40:11;3.80;;;2.57;;
13197;SDS011;6664;52.514;13.440;2024-02-21T04:42:59;9.80;;;3.10;;
13197;SDS011;6664;52.514;13.440;2024-02-21T04:45:44;10.40;;;2.80;;
13197;SDS011;6664;52.514;13.440;2024-02-21T04:48:30;8.70;;;3.60;;
13197;SDS011;6664;52.514;13.440;2024-02-21T04:51:15;12.90;;;4.00;;
13197;SDS011;6664;52.514;13.440;2024-02-21T04:54:01;9.13;;;2.63;;
13197;SDS011;6664;52.514;13.440;2024-02-21T04:56:49;5.73;;;3.13;;
13197;SDS011;6664;52.514;13.440;2024-02-21T04:59:38;10.80;;;3.60;;
13197;SDS011;6664;52.514;13.440;2024-02-21T05:02:23;3.87;;;2.87;;
13197;SDS011;6664;52.514;13.440;2024-02-21T05:05:11;9.20;;;3.60;;
13197;SDS011;6664;52.514;13.440;2024-02-21T05:08:02;11.00;;;3.53;;
13197;SDS011;6664;52.514;13.440;2024-02-21T05:10:48;8.03;;;3.13;;
13197;SDS011;6664;52.514;13.440;2024-02-21T05:13:33;11.07;;;3.67;;
13197;SDS011;6664;52.514;13.440;2024-02-21T05:16:20;18.63;;;3.73;;
13197;SDS011;6664;52.514;13.440;2024-02-21T05:19:05;10.80;;;3.23;;
13197;SDS011;6664;52.514;13.440;2024-02-21T05:21:51;14.23;;;4.00;;
13197;SDS011;6664;52.514;13.440;2024-02-21T05:24:38;13.07;;;3.70;;
13197;SDS011;6664;52.514;13.440;2024-02-21T05:27:26;8.40;;;3.53;;
13197;SDS011;6664;52.514;13.440;2024-02-21T05:30:13;11.27;;;3.70;;
13197;SDS011;6664;52.514;13.440;2024-02-21T05:32:59;8.97;;;3.23;;
13197;SDS011;6664;52.514;13.440;2024-02-21T05:35:51;7.20;;;3.03;;
13197;SDS011;6664;52.514;13.440;2024-02-21T05:38:36;11.10;;;3.00;;
13197;SDS011;6664;52.514;13.440;2024-02-21T05:41:23;7.63;;;3.60;;
13197;SDS011;6664;52.514;13.440;2024-02-21T05:44:08;8.17;;;2.77;;
13197;SDS011;6664;52.514;13.440;2024-02-21T05:46:55;8.13;;;3.23;;
13197;SDS011;6664;52.514;13.440;2024-02-21T05:49:41;9.40;;;3.60;;
13197;SDS011;6664;52.514;13.440;2024-02-21T05:52:27;8.10;;;3.77;;
13197;SDS011;6664;52.514;13.440;2024-02-21T05:55:13;7.73;;;3.23;;
13197;SDS011;6664;52.514;13.440;2024-02-21T05:58:02;7.43;;;3.40;;
13197;SDS011;6664;52.514;13.440;2024-02-21T06:00:50;8.37;;;3.90;;
13197;SDS011;6664;52.514;13.440;2024-02-21T06:03:37;13.73;;;4.53;;
13197;SDS011;6664;52.514;13.440;2024-02-21T06:06:22;12.30;;;3.70;;
13197;SDS011;6664;52.514;13.440;2024-02-21T06:09:08;6.70;;;3.93;;
13197;SDS011;6664;52.514;13.440;2024-02-21T06:11:53;10.23;;;4.10;;
13197;SDS011;6664;52.514;13.440;2024-02-21T06:14:39;12.27;;;4.40;;
13197;SDS011;6664;52.514;13.440;2024-02-21T06:17:24;9.10;;;4.80;;
13197;SDS011;6664;52.514;13.440;2024-02-21T06:20:10;8.80;;;3.73;;
13197;SDS011;6664;52.514;13.440;2024-02-21T06:22:57;7.50;;;4.00;;
13197;SDS011;6664;52.514;13.440;2024-02-21T06:25:43;7.43;;;3.47;;
13197;SDS011;6664;52.514;13.440;2024-02-21T06:28:31;20.57;;;3.73;;
13197;SDS011;6664;52.514;13.440;2024-02-21T06:31:17;10.73;;;4.10;;
13197;SDS011;6664;52.514;13.440;2024-02-21T06:34:03;12.77;;;3.83;;
13197;SDS011;6664;52.514;13.440;2024-02-21T06:36:51;11.70;;;4.03;;
13197;SDS011;6664;52.514;13.440;2024-02-21T06:39:37;12.23;;;4.03;;
13197;SDS011;6664;52.514;13.440;2024-02-21T06:42:24;7.30;;;3.63;;
13197;SDS011;6664;52.514;13.440;2024-02-21T06:45:10;10.50;;;5.03;;
13197;SDS011;6664;52.514;13.440;2024-02-21T06:47:56;9.30;;;3.70;;
13197;SDS011;6664;52.514;13.440;2024-02-21T06:50:45;5.37;;;3.43;;
13197;SDS011;6664;52.514;13.440;2024-02-21T06:53:31;6.70;;;4.07;;
13197;SDS011;6664;52.514;13.440;2024-02-21T06:56:20;10.40;;;3.97;;
13197;SDS011;6664;52.514;13.440;2024-02-21T06:59:12;16.60;;;4.07;;
13197;SDS011;6664;52.514;13.440;2024-02-21T07:02:00;9.80;;;4.40;;
13197;SDS011;6664;52.514;13.440;2024-02-21T07:04:48;9.87;;;3.70;;
13197;SDS011;6664;52.514;13.440;2024-02-21T07:07:34;9.37;;;4.07;;
13197;SDS011;6664;52.514;13.440;2024-02-21T07:10:20;11.97;;;4.43;;
13197;SDS011;6664;52.514;13.440;2024-02-21T07:13:06;5.50;;;3.90;;
13197;SDS011;6664;52.514;13.440;2024-02-21T07:15:52;13.10;;;4.17;;
13197;SDS011;6664;52.514;13.440;2024-02-21T07:18:40;8.17;;;3.97;;
13197;SDS011;6664;52.514;13.440;2024-02-21T07:21:25;14.43;;;4.63;;
13197;SDS011;6664;52.514;13.440;2024-02-21T07:24:11;10.83;;;4.10;;
13197;SDS011;6664;52.514;13.440;2024-02-21T07:26:59;5.87;;;3.20;;
13197;SDS011;6664;52.514;13.440;2024-02-21T07:29:50;5.37;;;3.93;;
13197;SDS011;6664;52.514;13.440;2024-02-21T07:32:38;13.70;;;5.47;;
13197;SDS011;6664;52.514;13.440;2024-02-21T07:35:24;12.80;;;4.70;;
13197;SDS011;6664;52.514;13.440;2024-02-21T07:38:14;6.50;;;4.30;;
13197;SDS011;6664;52.514;13.440;2024-02-21T07:41:01;7.13;;;3.73;;
13197;SDS011;6664;52.514;13.440;2024-02-21T07:43:48;6.73;;;3.10;;
13197;SDS011;6664;52.514;13.440;2024-02-21T07:46:37;8.40;;;4.50;;
13197;SDS011;6664;52.514;13.440;2024-02-21T07:49:24;15.03;;;4.13;;
13197;SDS011;6664;52.514;13.440;2024-02-21T07:52:10;5.53;;;3.53;;
13197;SDS011;6664;52.514;13.440;2024-02-21T07:54:58;12.10;;;4.00;;
13197;SDS011;6664;52.514;13.440;2024-02-21T07:57:44;7.70;;;3.90;;
13197;SDS011;6664;52.514;13.440;2024-02-21T08:00:30;10.90;;;4.10;;
13197;SDS011;6664;52.514;13.440;2024-02-21T08:03:16;10.40;;;3.80;;
13197;SDS011;6664;52.514;13.440;2024-02-21T08:06:03;8.33;;;4.03;;
13197;SDS011;6664;52.514;13.440;2024-02-21T08:08:48;6.50;;;3.80;;
13197;SDS011;6664;52.514;13.440;2024-02-21T08:11:34;9.23;;;3.77;;
13197;SDS011;6664;52.514;13.440;2024-02-21T08:14:23;8.40;;;3.10;;
13197;SDS011;6664;52.514;13.440;2024-02-21T08:17:09;11.17;;;4.60;;
13197;SDS011;6664;52.514;13.440;2024-02-21T08:19:55;8.63;;;3.73;;
13197;SDS011;6664;52.514;13.440;2024-02-21T08:22:40;8.30;;;3.60;;
13197;SDS011;6664;52.514;13.440;2024-02-21T08:25:26;7.90;;;4.13;;
13197;SDS011;6664;52.514;13.440;2024-02-21T08:28:13;10.70;;;4.10;;
13197;SDS011;6664;52.514;13.440;2024-02-21T08:30:58;7.13;;;3.60;;
13197;SDS011;6664;52.514;13.440;2024-02-21T08:33:44;6.30;;;3.57;;
13197;SDS011;6664;52.514;13.440;2024-02-21T08:36:30;10.03;;;3.57;;
13197;SDS011;6664;52.514;13.440;2024-02-21T08:39:17;5.17;;;3.87;;
13197;SDS011;6664;52.514;13.440;2024-02-21T08:42:03;10.10;;;4.00;;
13197;SDS011;6664;52.514;13.440;2024-02-21T08:44:49;10.73;;;4.83;;
13197;SDS011;6664;52.514;13.440;2024-02-21T08:47:34;12.23;;;4.23;;
13197;SDS011;6664;52.514;13.440;2024-02-21T08:50:23;14.60;;;4.47;;
13197;SDS011;6664;52.514;13.440;2024-02-21T08:53:13;6.40;;;4.50;;
13197;SDS011;6664;52.514;13.440;2024-02-21T08:55:58;8.40;;;4.60;;
13197;SDS011;6664;52.514;13.440;2024-02-21T08:58:44;10.33;;;4.13;;
13197;SDS011;6664;52.514;13.440;2024-02-21T09:01:33;8.70;;;4.50;;
13197;SDS011;6664;52.514;13.440;2024-02-21T09:04:20;9.30;;;5.10;;
13197;SDS011;6664;52.514;13.440;2024-02-21T09:07:08;6.73;;;4.07;;
13197;SDS011;6664;52.514;13.440;2024-02-21T09:09:54;7.30;;;4.80;;
13197;SDS011;6664;52.514;13.440;2024-02-21T09:12:40;5.17;;;3.43;;
13197;SDS011;6664;52.514;13.440;2024-02-21T09:15:26;16.03;;;4.47;;
13197;SDS011;6664;52.514;13.440;2024-02-21T09:18:14;4.70;;;3.60;;
13197;SDS011;6664;52.514;13.440;2024-02-21T09:21:02;8.63;;;4.40;;
13197;SDS011;6664;52.514;13.440;2024-02-21T09:23:50;8.20;;;4.57;;
13197;SDS011;6664;52.514;13.440;2024-02-21T09:26:35;6.27;;;4.10;;
13197;SDS011;6664;52.514;13.440;2024-02-21T09:29:21;7.07;;;3.47;;
13197;SDS011;6664;52.514;13.440;2024-02-21T09:32:11;6.03;;;3.87;;
13197;SDS011;6664;52.514;13.440;2024-02-21T09:35:00;7.93;;;4.30;;
13197;SDS011;6664;52.514;13.440;2024-02-21T09:37:47;7.83;;;4.50;;
13197;SDS011;6664;52.514;13.440;2024-02-21T09:40:32;9.73;;;4.47;;
13197;SDS011;6664;52.514;13.440;2024-02-21T09:43:23;10.60;;;4.60;;
13197;SDS011;6664;52.514;13.440;2024-02-21T09:46:10;13.23;;;4.67;;
13197;SDS011;6664;52.514;13.440;2024-02-21T09:49:08;11.17;;;4.60;;
13197;SDS011;6664;52.514;13.440;2024-02-21T09:52:00;8.30;;;4.20;;
13197;SDS011;6664;52.514;13.440;2024-02-21T09:54:47;14.37;;;4.37;;
13197;SDS011;6664;52.514;13.440;2024-02-21T09:57:37;8.67;;;4.40;;
13197;SDS011;6664;52.514;13.440;2024-02-21T10:00:24;7.57;;;4.83;;
13197;SDS011;6664;52.514;13.440;2024-02-21T10:03:11;13.00;;;5.23;;
13197;SDS011;6664;52.514;13.440;2024-02-21T10:05:58;5.93;;;4.50;;
13197;SDS011;6664;52.514;13.440;2024-02-21T10:08:51;11.30;;;4.60;;
13197;SDS011;6664;52.514;13.440;2024-02-21T10:11:38;5.87;;;4.67;;
13197;SDS011;6664;52.514;13.440;2024-02-21T10:14:26;7.90;;;4.30;;
13197;SDS011;6664;52.514;13.440;2024-02-21T10:17:16;10.47;;;4.90;;
13197;SDS011;6664;52.514;13.440;2024-02-21T10:20:10;11.80;;;5.57;;
13197;SDS011;6664;52.514;13.440;2024-02-21T10:23:00;11.80;;;4.53;;
13197;SDS011;6664;52.514;13.440;2024-02-21T10:25:51;8.83;;;5.87;;
13197;SDS011;6664;52.514;13.440;2024-02-21T10:28:37;7.00;;;4.80;;
13197;SDS011;6664;52.514;13.440;2024-02-21T10:31:30;7.50;;;4.63;;
13197;SDS011;6664;52.514;13.440;2024-02-21T10:34:16;7.90;;;4.33;;
13197;SDS011;6664;52.514;13.440;2024-02-21T10:37:03;8.63;;;5.40;;
13197;SDS011;6664;52.514;13.440;2024-02-21T10:39:50;6.87;;;4.20;;
13197;SDS011;6664;52.514;13.440;2024-02-21T10:42:36;13.20;;;5.30;;
13197;SDS011;6664;52.514;13.440;2024-02-21T10:45:31;8.70;;;4.60;;
13197;SDS011;6664;52.514;13.440;2024-02-21T10:48:22;6.47;;;4.50;;
13197;SDS011;6664;52.514;13.440;2024-02-21T10:51:18;5.77;;;4.30;;
13197;SDS011;6664;52.514;13.440;2024-02-21T10:57:15;5.80;;;4.20;;
13197;SDS011;6664;52.514;13.440;2024-02-21T11:00:02;6.87;;;4.23;;
13197;SDS011;6664;52.514;13.440;2024-02-21T11:02:53;4.87;;;4.20;;
13197;SDS011;6664;52.514;13.440;2024-02-21T11:05:39;8.03;;;4.50;;
13197;SDS011;6664;52.514;13.440;2024-02-21T11:08:25;3.70;;;3.27;;
13197;SDS011;6664;52.514;13.440;2024-02-21T11:11:13;7.63;;;4.20;;
13197;SDS011;6664;52.514;13.440;2024-02-21T11:14:19;4.17;;;3.73;;
13197;SDS011;6664;52.514;13.440;2024-02-21T11:17:15;6.97;;;4.00;;
13197;SDS011;6664;52.514;13.440;2024-02-21T11:20:12;5.63;;;3.80;;
13197;SDS011;6664;52.514;13.440;2024-02-21T11:22:59;12.17;;;4.13;;
13197;SDS011;6664;52.514;13.440;2024-02-21T11:25:45;8.37;;;3.90;;
13197;SDS011;6664;52.514;13.440;2024-02-21T11:28:32;11.00;;;4.20;;
13197;SDS011;6664;52.514;13.440;2024-02-21T11:31:17;7.33;;;3.80;;
13197;SDS011;6664;52.514;13.440;2024-02-21T11:34:03;8.80;;;4.37;;
13197;SDS011;6664;52.514;13.440;2024-02-21T11:36:50;10.10;;;4.67;;
13197;SDS011;6664;52.514;13.440;2024-02-21T11:39:37;5.20;;;3.40;;
13197;SDS011;6664;52.514;13.440;2024-02-21T11:42:27;6.93;;;3.60;;
13197;SDS011;6664;52.514;13.440;2024-02-21T11:45:16;7.60;;;2.80;;
13197;SDS011;6664;52.514;13.440;2024-02-21T11:48:05;6.67;;;3.20;;
13197;SDS011;6664;52.514;13.440;2024-02-21T11:50:55;3.93;;;2.87;;
13197;SDS011;6664;52.514;13.440;2024-02-21T11:53:41;3.87;;;2.77;;
13197;SDS011;6664;52.514;13.440;2024-02-21T11:56:41;3.13;;;2.63;;
13197;SDS011;6664;52.514;13.440;2024-02-21T11:59:29;4.90;;;2.90;;
13197;SDS011;6664;52.514;13.440;2024-02-21T12:02:17;4.63;;;2.90;;
13197;SDS011;6664;52.514;13.440;2024-02-21T12:05:04;3.60;;;3.27;;
13197;SDS011;6664;52.514;13.440;2024-02-21T12:07:53;4.07;;;2.33;;
13197;SDS011;6664;52.514;13.440;2024-02-21T12:10:38;3.87;;;2.67;;
13197;SDS011;6664;52.514;13.440;2024-02-21T12:13:27;3.03;;;2.73;;
13197;SDS011;6664;52.514;13.440;2024-02-21T12:16:14;5.67;;;3.23;;
13197;SDS011;6664;52.514;13.440;2024-02-21T12:19:05;2.60;;;2.20;;
13197;SDS011;6664;52.514;13.440;2024-02-21T12:21:53;4.00;;;2.70;;
13197;SDS011;6664;52.514;13.440;2024-02-21T12:24:43;3.17;;;2.30;;
13197;SDS011;6664;52.514;13.440;2024-02-21T12:27:32;3.23;;;2.77;;
13197;SDS011;6664;52.514;13.440;2024-02-21T12:30:18;3.33;;;2.10;;
13197;SDS011;6664;52.514;13.440;2024-02-21T12:33:04;6.97;;;3.10;;
13197;SDS011;6664;52.514;13.440;2024-02-21T12:35:50;6.00;;;2.80;;
13197;SDS011;6664;52.514;13.440;2024-02-21T12:38:36;5.70;;;2.87;;
13197;SDS011;6664;52.514;13.440;2024-02-21T12:41:22;4.23;;;2.70;;
13197;SDS011;6664;52.514;13.440;2024-02-21T12:44:07;5.23;;;2.60;;
13197;SDS011;6664;52.514;13.440;2024-02-21T12:46:53;3.93;;;2.33;;
13197;SDS011;6664;52.514;13.440;2024-02-21T12:49:40;11.00;;;2.60;;
13197;SDS011;6664;52.514;13.440;2024-02-21T12:52:30;5.20;;;2.80;;
13197;SDS011;6664;52.514;13.440;2024-02-21T12:55:16;1.73;;;1.60;;
13197;SDS011;6664;52.514;13.440;2024-02-21T12:58:04;2.07;;;1.97;;
13197;SDS011;6664;52.514;13.440;2024-02-21T13:00:52;3.80;;;2.50;;
13197;SDS011;6664;52.514;13.440;2024-02-21T13:03:37;6.50;;;2.97;;
13197;SDS011;6664;52.514;13.440;2024-02-21T13:06:23;2.63;;;2.30;;
13197;SDS011;6664;52.514;13.440;2024-02-21T13:09:09;3.43;;;2.50;;
13197;SDS011;6664;52.514;13.440;2024-02-21T13:11:58;2.93;;;1.80;;
13197;SDS011;6664;52.514;13.440;2024-02-21T13:14:44;4.67;;;2.63;;
13197;SDS011;6664;52.514;13.440;2024-02-21T13:17:30;3.57;;;2.00;;
13197;SDS011;6664;52.514;13.440;2024-02-21T13:20:20;3.23;;;1.80;;
13197;SDS011;6664;52.514;13.440;2024-02-21T13:23:08;2.70;;;2.27;;
13197;SDS011;6664;52.514;13.440;2024-02-21T13:25:56;4.07;;;2.20;;
13197;SDS011;6664;52.514;13.440;2024-02-21T13:28:45;3.43;;;2.13;;
13197;SDS011;6664;52.514;13.440;2024-02-21T13:31:30;3.93;;;2.77;;
13197;SDS011;6664;52.514;13.440;2024-02-21T13:34:16;4.10;;;2.20;;
13197;SDS011;6664;52.514;13.440;2024-02-21T13:37:02;3.60;;;2.13;;
13197;SDS011;6664;52.514;13.440;2024-02-21T13:39:49;2.33;;;2.13;;
13197;SDS011;6664;52.514;13.440;2024-02-21T13:42:35;7.40;;;2.80;;
13197;SDS011;6664;52.514;13.440;2024-02-21T13:45:24;5.33;;;2.63;;
13197;SDS011;6664;52.514;13.440;2024-02-21T13:48:09;3.57;;;2.33;;
13197;SDS011;6664;52.514;13.440;2024-02-21T13:50:57;2.40;;;2.20;;
13197;SDS011;6664;52.514;13.440;2024-02-21T13:53:47;4.93;;;2.83;;
13197;SDS011;6664;52.514;13.440;2024-02-21T13:56:33;2.83;;;1.90;;
13197;SDS011;6664;52.514;13.440;2024-02-21T13:59:20;4.40;;;2.10;;
13197;SDS011;6664;52.514;13.440;2024-02-21T14:02:05;6.60;;;2.50;;
13197;SDS011;6664;52.514;13.440;2024-02-21T14:04:54;4.83;;;2.37;;
13197;SDS011;6664;52.514;13.440;2024-02-21T14:07:39;4.90;;;2.53;;
13197;SDS011;6664;52.514;13.440;2024-02-21T14:10:27;5.43;;;2.43;;
13197;SDS011;6664;52.514;13.440;2024-02-21T14:13:13;2.10;;;2.00;;
13197;SDS011;6664;52.514;13.440;2024-02-21T14:16:02;5.90;;;2.80;;
13197;SDS011;6664;52.514;13.440;2024-02-21T14:18:53;4.80;;;2.23;;
13197;SDS011;6664;52.514;13.440;2024-02-21T14:21:39;4.90;;;2.07;;
13197;SDS011;6664;52.514;13.440;2024-02-21T14:24:25;3.97;;;2.03;;
13197;SDS011;6664;52.514;13.440;2024-02-21T14:27:13;3.23;;;1.97;;
13197;SDS011;6664;52.514;13.440;2024-02-21T14:29:58;5.47;;;2.63;;
13197;SDS011;6664;52.514;13.440;2024-02-21T14:32:44;15.13;;;2.27;;
13197;SDS011;6664;52.514;13.440;2024-02-21T14:35:31;5.17;;;2.03;;
13197;SDS011;6664;52.514;13.440;2024-02-21T14:38:17;3.47;;;1.70;;
13197;SDS011;6664;52.514;13.440;2024-02-21T14:41:04;9.17;;;2.40;;
13197;SDS011;6664;52.514;13.440;2024-02-21T14:43:50;6.93;;;2.20;;
13197;SDS011;6664;52.514;13.440;2024-02-21T14:46:37;4.17;;;2.20;;
13197;SDS011;6664;52.514;13.440;2024-02-21T14:49:25;2.83;;;1.70;;
13197;SDS011;6664;52.514;13.440;2024-02-21T14:52:12;2.73;;;1.87;;
13197;SDS011;6664;52.514;13.440;2024-02-21T14:54:58;2.10;;;1.70;;
13197;SDS011;6664;52.514;13.440;2024-02-21T14:57:44;6.00;;;2.30;;
13197;SDS011;6664;52.514;13.440;2024-02-21T15:00:30;6.57;;;2.47;;
13197;SDS011;6664;52.514;13.440;2024-02-21T15:03:16;3.87;;;2.33;;
13197;SDS011;6664;52.514;13.440;2024-02-21T15:06:05;10.47;;;2.50;;
13197;SDS011;6664;52.514;13.440;2024-02-21T15:08:53;6.57;;;2.23;;
13197;SDS011;6664;52.514;13.440;2024-02-21T15:11:39;9.93;;;2.13;;
13197;SDS011;6664;52.514;13.440;2024-02-21T15:14:25;3.40;;;2.23;;
13197;SDS011;6664;52.514;13.440;2024-02-21T15:17:11;4.23;;;2.10;;
13197;SDS011;6664;52.514;13.440;2024-02-21T15:19:57;7.63;;;2.43;;
13197;SDS011;6664;52.514;13.440;2024-02-21T15:22:45;3.50;;;2.40;;
13197;SDS011;6664;52.514;13.440;2024-02-21T15:25:30;3.23;;;1.77;;
13197;SDS011;6664;52.514;13.440;2024-02-21T15:28:16;4.10;;;2.70;;
13197;SDS011;6664;52.514;13.440;2024-02-21T15:31:01;6.10;;;2.37;;
13197;SDS011;6664;52.514;13.440;2024-02-21T15:33:49;6.83;;;3.47;;
13197;SDS011;6664;52.514;13.440;2024-02-21T15:36:39;5.40;;;2.00;;
13197;SDS011;6664;52.514;13.440;2024-02-21T15:39:25;6.00;;;2.60;;
13197;SDS011;6664;52.514;13.440;2024-02-21T15:42:13;3.50;;;2.40;;
13197;SDS011;6664;52.514;13.440;2024-02-21T15:44:58;9.30;;;1.77;;
13197;SDS011;6664;52.514;13.440;2024-02-21T15:47:46;6.10;;;2.23;;
13197;SDS011;6664;52.514;13.440;2024-02-21T15:50:31;6.43;;;1.97;;
13197;SDS011;6664;52.514;13.440;2024-02-21T15:53:17;6.93;;;2.43;;
13197;SDS011;6664;52.514;13.440;2024-02-21T15:56:05;9.73;;;2.37;;
13197;SDS011;6664;52.514;13.440;2024-02-21T15:58:51;8.33;;;2.63;;
13197;SDS011;6664;52.514;13.440;2024-02-21T16:01:40;3.73;;;2.07;;
13197;SDS011;6664;52.514;13.440;2024-02-21T16:04:28;6.63;;;3.20;;
13197;SDS011;6664;52.514;13.440;2024-02-21T16:07:15;3.73;;;2.10;;
13197;SDS011;6664;52.514;13.440;2024-02-21T16:10:01;5.33;;;2.33;;
13197;SDS011;6664;52.514;13.440;2024-02-21T16:12:47;7.80;;;3.13;;
13197;SDS011;6664;52.514;13.440;2024-02-21T16:15:36;3.80;;;2.97;;
13197;SDS011;6664;52.514;13.440;2024-02-21T16:18:22;4.23;;;3.23;;
13197;SDS011;6664;52.514;13.440;2024-02-21T16:21:08;10.80;;;3.67;;
13197;SDS011;6664;52.514;13.440;2024-02-21T16:23:54;3.13;;;2.50;;
13197;SDS011;6664;52.514;13.440;2024-02-21T16:26:39;3.70;;;2.67;;
13197;SDS011;6664;52.514;13.440;2024-02-21T16:29:25;9.03;;;3.07;;
13197;SDS011;6664;52.514;13.440;2024-02-21T16:32:12;4.67;;;2.67;;
13197;SDS011;6664;52.514;13.440;2024-02-21T16:34:58;10.27;;;3.13;;
13197;SDS011;6664;52.514;13.440;2024-02-21T16:37:44;5.10;;;2.50;;
13197;SDS011;6664;52.514;13.440;2024-02-21T16:40:32;5.50;;;2.87;;
13197;SDS011;6664;52.514;13.440;2024-02-21T16:43:18;5.80;;;2.77;;
13197;SDS011;6664;52.514;13.440;2024-02-21T16:46:04;4.53;;;3.20;;
13197;SDS011;6664;52.514;13.440;2024-02-21T16:48:49;5.50;;;3.47;;
13197;SDS011;6664;52.514;13.440;2024-02-21T16:51:38;3.90;;;2.87;;